createdAt,value
2019-03-23T00:02:22.940Z,99.90
2019-03-23T00:04:55.593Z,99.90
2019-03-23T00:07:27.986Z,99.90
2019-03-23T00:09:59.897Z,99.90
2019-03-23T00:12:31.976Z,99.90
2019-03-23T00:15:04.180Z,99.90
2019-03-23T00:17:36.247Z,99.90
2019-03-23T00:20:09.922Z,99.90
2019-03-23T00:22:42.713Z,99.90
2019-03-23T00:25:15.280Z,99.90
2019-03-23T00:27:47.226Z,99.90
2019-03-23T00:30:19.313Z,99.90
2019-03-23T00:32:51.683Z,99.90
2019-03-23T00:35:23.647Z,99.90
2019-03-23T00:37:56.721Z,99.90
2019-03-23T00:40:28.619Z,99.90
2019-03-23T00:43:00.964Z,99.90
2019-03-23T00:45:33.655Z,99.90
2019-03-23T00:48:06.119Z,99.90
2019-03-23T00:50:38.118Z,99.90
2019-03-23T00:53:10.311Z,99.90
2019-03-23T00:55:42.290Z,99.90
2019-03-23T00:58:14.671Z,99.90
2019-03-23T01:00:46.669Z,99.90
2019-03-23T01:03:18.670Z,99.90
2019-03-23T01:05:50.703Z,99.90
2019-03-23T01:08:22.799Z,99.90
2019-03-23T01:10:55.084Z,99.90
2019-03-23T01:13:27.116Z,99.90
2019-03-23T01:15:59.330Z,99.90
2019-03-23T01:18:31.420Z,99.90
2019-03-23T01:21:03.717Z,99.90
2019-03-23T01:23:35.735Z,99.90
2019-03-23T01:26:07.851Z,99.90
2019-03-23T01:28:41.397Z,99.90
2019-03-23T01:31:13.802Z,99.90
2019-03-23T01:33:46.242Z,99.90
2019-03-23T01:36:18.754Z,99.90
2019-03-23T01:38:50.692Z,99.90
2019-03-23T01:41:22.697Z,99.90
2019-03-23T01:43:55.016Z,99.90
2019-03-23T01:46:27.364Z,99.90
2019-03-23T01:48:59.296Z,99.90
2019-03-23T01:51:31.608Z,99.90
2019-03-23T01:54:04.521Z,99.90
2019-03-23T01:56:36.517Z,99.90
2019-03-23T01:59:08.464Z,99.90
2019-03-23T02:01:40.371Z,99.90
2019-03-23T02:04:12.404Z,99.90
2019-03-23T02:06:44.437Z,99.90
2019-03-23T02:09:16.302Z,99.90
2019-03-23T02:11:48.281Z,99.90
2019-03-23T02:14:20.295Z,99.90
2019-03-23T02:16:52.349Z,99.90
2019-03-23T02:19:24.352Z,99.90
2019-03-23T02:21:56.418Z,99.90
2019-03-23T02:24:28.382Z,99.90
2019-03-23T02:27:00.680Z,99.90
2019-03-23T02:29:32.993Z,99.90
2019-03-23T02:32:05.407Z,99.90
2019-03-23T02:34:37.353Z,99.90
2019-03-23T02:37:09.324Z,99.90
2019-03-23T02:39:41.243Z,99.90
2019-03-23T02:42:13.305Z,99.90
2019-03-23T02:44:45.311Z,99.90
2019-03-23T02:47:17.693Z,99.90
2019-03-23T02:49:49.692Z,99.90
2019-03-23T02:52:21.750Z,99.90
2019-03-23T02:54:53.945Z,99.90
2019-03-23T02:57:26.213Z,99.90
2019-03-23T02:59:58.253Z,99.90
2019-03-23T03:02:30.998Z,99.90
2019-03-23T03:05:03.262Z,99.90
2019-03-23T03:07:41.730Z,99.90
2019-03-23T03:10:10.385Z,99.90
2019-03-23T03:12:42.361Z,99.90
2019-03-23T03:15:14.455Z,99.90
2019-03-23T03:17:46.421Z,99.90
2019-03-23T03:20:18.420Z,99.90
2019-03-23T03:22:50.603Z,99.90
2019-03-23T03:25:22.860Z,99.90
2019-03-23T03:27:54.725Z,99.90
2019-03-23T03:30:26.815Z,99.90
2019-03-23T03:32:58.771Z,99.90
2019-03-23T03:35:30.825Z,99.90
2019-03-23T03:38:02.981Z,99.90
2019-03-23T03:40:35.402Z,99.90
2019-03-23T03:43:07.385Z,99.90
2019-03-23T03:45:39.311Z,99.90
2019-03-23T03:48:11.407Z,99.90
2019-03-23T03:50:43.478Z,99.90
2019-03-23T03:53:15.539Z,99.90
2019-03-23T03:55:47.386Z,99.90
2019-03-23T03:58:19.749Z,99.90
2019-03-23T04:00:51.746Z,99.90
2019-03-23T04:03:23.620Z,99.90
2019-03-23T04:05:56.019Z,99.90
2019-03-23T04:08:28.013Z,99.90
2019-03-23T04:11:00.192Z,99.90
2019-03-23T04:13:32.463Z,99.90
2019-03-23T04:16:04.509Z,99.90
2019-03-23T04:18:36.418Z,99.90
2019-03-23T04:21:08.451Z,99.90
2019-03-23T04:23:40.283Z,99.90
2019-03-23T04:26:12.244Z,99.90
2019-03-23T04:28:44.133Z,99.90
2019-03-23T04:31:16.019Z,99.90
2019-03-23T04:33:47.936Z,99.90
2019-03-23T04:36:19.895Z,99.90
2019-03-23T04:38:51.810Z,99.90
2019-03-23T04:41:23.634Z,99.90
2019-03-23T04:43:56.299Z,99.90
2019-03-23T04:46:28.264Z,99.90
2019-03-23T04:49:00.113Z,99.90
2019-03-23T04:51:31.942Z,99.90
2019-03-23T04:54:04.060Z,99.90
2019-03-23T04:56:35.974Z,99.90
2019-03-23T04:59:08.035Z,99.90
2019-03-23T05:01:40.124Z,99.90
2019-03-23T05:04:12.218Z,99.90
2019-03-23T05:06:44.119Z,99.90
2019-03-23T05:09:16.036Z,99.90
2019-03-23T05:11:47.946Z,99.90
2019-03-23T05:14:19.868Z,99.90
2019-03-23T05:16:52.643Z,99.90
2019-03-23T05:19:24.555Z,99.90
2019-03-23T05:21:56.527Z,99.90
2019-03-23T05:24:28.881Z,99.90
2019-03-23T05:27:00.781Z,99.90
2019-03-23T05:29:32.767Z,99.90
2019-03-23T05:32:05.061Z,99.90
2019-03-23T05:34:37.060Z,99.90
2019-03-23T05:37:09.015Z,99.90
2019-03-23T05:39:40.857Z,99.90
2019-03-23T05:42:12.822Z,99.90
2019-03-23T05:44:44.931Z,99.90
2019-03-23T05:47:16.848Z,99.90
2019-03-23T05:49:49.062Z,99.90
2019-03-23T05:52:21.544Z,99.90
2019-03-23T05:54:53.680Z,99.90
2019-03-23T05:57:25.508Z,99.90
2019-03-23T05:59:57.426Z,99.90
2019-03-23T06:02:29.710Z,99.90
2019-03-23T06:05:02.019Z,99.90
2019-03-23T06:07:34.234Z,99.90
2019-03-23T06:10:06.959Z,99.90
2019-03-23T06:12:39.002Z,99.90
2019-03-23T06:15:11.144Z,99.90
2019-03-23T06:17:43.086Z,99.90
2019-03-23T06:20:15.478Z,99.90
2019-03-23T06:22:47.733Z,99.90
2019-03-23T06:25:19.674Z,99.90
2019-03-23T06:27:51.710Z,99.90
2019-03-23T06:30:23.715Z,99.90
2019-03-23T06:32:56.099Z,99.90
2019-03-23T06:35:28.094Z,99.90
2019-03-23T06:37:59.970Z,99.90
2019-03-23T06:40:32.200Z,99.90
2019-03-23T06:43:04.473Z,99.90
2019-03-23T06:45:36.846Z,99.90
2019-03-23T06:48:08.916Z,99.90
2019-03-23T06:50:40.938Z,99.90
2019-03-23T06:53:12.771Z,99.90
2019-03-23T06:55:44.763Z,99.90
2019-03-23T06:58:16.858Z,99.90
2019-03-23T07:00:48.880Z,99.90
2019-03-23T07:03:20.868Z,99.90
2019-03-23T07:05:52.835Z,99.90
2019-03-23T07:08:31.831Z,99.90
2019-03-23T07:10:59.700Z,99.90
2019-03-23T07:13:32.042Z,99.90
2019-03-23T07:16:04.802Z,99.90
2019-03-23T07:18:37.671Z,99.90
2019-03-23T07:21:09.748Z,99.90
2019-03-23T07:23:42.001Z,99.90
2019-03-23T07:26:14.020Z,99.90
2019-03-23T07:28:46.513Z,99.90
2019-03-23T07:31:18.630Z,99.90
2019-03-23T07:33:50.443Z,99.90
2019-03-23T07:36:22.453Z,99.90
2019-03-23T07:38:56.321Z,99.90
2019-03-23T07:41:28.479Z,99.90
2019-03-23T07:44:00.549Z,99.90
2019-03-23T07:46:32.541Z,99.90
2019-03-23T07:49:04.440Z,99.90
2019-03-23T07:51:36.870Z,99.90
2019-03-23T07:54:08.772Z,99.90
2019-03-23T07:56:40.722Z,99.90
2019-03-23T07:59:12.962Z,99.90
2019-03-23T08:01:45.233Z,99.90
2019-03-23T08:04:17.269Z,99.90
2019-03-23T08:06:49.607Z,99.90
2019-03-23T08:09:23.634Z,99.90
2019-03-23T08:11:55.604Z,99.90
2019-03-23T08:14:27.589Z,99.90
2019-03-23T08:16:59.523Z,99.90
2019-03-23T08:19:31.369Z,99.90
2019-03-23T08:22:04.386Z,99.90
2019-03-23T08:24:37.191Z,99.90
2019-03-23T08:27:09.063Z,99.90
2019-03-23T08:29:41.351Z,99.90
2019-03-23T08:32:13.366Z,99.90
2019-03-23T08:34:45.565Z,99.90
2019-03-23T08:37:17.845Z,99.90
2019-03-23T08:39:49.674Z,99.90
2019-03-23T08:42:21.957Z,99.90
2019-03-23T08:44:53.889Z,99.90
2019-03-23T08:47:26.432Z,99.90
2019-03-23T08:49:59.663Z,99.90
2019-03-23T08:52:32.810Z,99.90
2019-03-23T08:55:06.737Z,99.90
2019-03-23T08:57:41.269Z,99.90
2019-03-23T09:00:13.879Z,99.90
2019-03-23T09:02:46.268Z,99.90
2019-03-23T09:05:18.305Z,99.90
2019-03-23T09:07:53.490Z,99.90
2019-03-23T09:10:25.829Z,99.90
2019-03-23T09:12:57.956Z,99.90
2019-03-23T09:15:30.262Z,99.90
2019-03-23T09:18:02.262Z,99.90
2019-03-23T09:20:34.194Z,99.90
2019-03-23T09:23:06.671Z,99.90
2019-03-23T09:25:38.738Z,99.90
2019-03-23T09:28:10.776Z,99.90
2019-03-23T09:30:43.327Z,99.90
2019-03-23T09:33:15.761Z,99.90
2019-03-23T09:35:47.755Z,99.90
2019-03-23T09:38:20.104Z,99.90
2019-03-23T09:40:52.161Z,99.90
2019-03-23T09:43:24.600Z,99.90
2019-03-23T09:45:56.980Z,99.90
2019-03-23T09:48:28.993Z,99.90
2019-03-23T09:51:01.048Z,99.90
2019-03-23T09:53:33.077Z,99.90
2019-03-23T09:56:05.129Z,99.90
2019-03-23T09:58:37.336Z,99.90
2019-03-23T10:01:09.380Z,99.90
2019-03-23T10:03:42.938Z,99.90
2019-03-23T10:06:14.945Z,99.90
2019-03-23T10:08:46.808Z,99.90
2019-03-23T10:11:19.126Z,99.90
2019-03-23T10:13:51.803Z,99.90
2019-03-23T10:16:24.085Z,99.90
2019-03-23T10:18:56.154Z,99.90
2019-03-23T10:21:28.305Z,99.90
2019-03-23T10:24:00.216Z,99.90
2019-03-23T10:26:32.138Z,99.90
2019-03-23T10:29:04.070Z,99.90
2019-03-23T10:31:36.054Z,99.90
2019-03-23T10:34:08.047Z,99.90
2019-03-23T10:36:40.031Z,99.90
2019-03-23T10:39:13.590Z,99.90
2019-03-23T10:41:45.425Z,99.90
2019-03-23T10:44:17.456Z,99.90
2019-03-23T10:46:51.101Z,99.60
2019-03-23T10:49:23.076Z,98.90
2019-03-23T10:51:55.859Z,98.80
2019-03-23T10:54:29.043Z,99.50
2019-03-23T10:57:01.228Z,99.20
2019-03-23T10:59:33.482Z,97.90
2019-03-23T11:02:05.550Z,97.80
2019-03-23T11:04:37.525Z,97.70
2019-03-23T11:07:09.479Z,97.80
2019-03-23T11:09:41.547Z,96.60
2019-03-23T11:12:13.996Z,95.20
2019-03-23T11:14:47.189Z,95.80
2019-03-23T11:17:19.321Z,94.50
2019-03-23T11:19:51.550Z,93.80
2019-03-23T11:22:23.508Z,93.30
2019-03-23T11:24:55.617Z,92.90
2019-03-23T11:27:27.682Z,92.20
2019-03-23T11:30:00.048Z,91.50
2019-03-23T11:32:32.263Z,91.10
2019-03-23T11:35:05.044Z,90.20
2019-03-23T11:37:37.731Z,90.00
2019-03-23T11:40:10.528Z,89.70
2019-03-23T11:42:49.723Z,87.90
2019-03-23T11:45:16.332Z,86.90
2019-03-23T11:47:48.370Z,84.30
2019-03-23T11:50:20.431Z,83.50
2019-03-23T11:52:52.252Z,83.20
2019-03-23T11:55:24.183Z,82.80
2019-03-23T11:57:56.071Z,82.90
2019-03-23T12:00:28.314Z,82.80
2019-03-23T12:03:00.722Z,82.30
2019-03-23T12:05:32.856Z,80.90
2019-03-23T12:08:05.254Z,79.10
2019-03-23T12:10:38.238Z,78.50
2019-03-23T12:13:10.320Z,77.90
2019-03-23T12:15:42.384Z,75.10
2019-03-23T12:18:14.287Z,75.40
2019-03-23T12:20:46.602Z,74.00
2019-03-23T12:23:18.584Z,73.00
2019-03-23T12:25:50.501Z,72.60
2019-03-23T12:28:22.892Z,71.40
2019-03-23T12:30:54.963Z,70.30
2019-03-23T12:33:26.957Z,67.30
2019-03-23T12:35:59.027Z,63.80
2019-03-23T12:38:31.116Z,61.80
2019-03-23T12:41:11.483Z,62.30
2019-03-23T12:43:37.024Z,60.00
2019-03-23T12:46:09.208Z,58.40
2019-03-23T12:48:41.231Z,58.40
2019-03-23T12:51:14.749Z,56.50
2019-03-23T12:53:47.021Z,57.50
2019-03-23T12:56:19.576Z,56.80
2019-03-23T12:58:51.865Z,56.30
2019-03-23T13:01:23.865Z,54.80
2019-03-23T13:03:56.472Z,54.90
2019-03-23T13:06:29.543Z,54.40
2019-03-23T13:09:05.068Z,51.80
2019-03-23T13:11:37.384Z,51.10
2019-03-23T13:14:09.502Z,50.20
2019-03-23T13:16:41.951Z,50.50
2019-03-23T13:19:14.834Z,50.40
2019-03-23T13:21:46.911Z,50.20
2019-03-23T13:24:19.286Z,51.30
2019-03-23T13:26:51.354Z,49.00
2019-03-23T13:29:23.425Z,48.70
2019-03-23T13:31:55.759Z,48.20
2019-03-23T13:34:27.846Z,48.20
2019-03-23T13:36:59.934Z,47.90
2019-03-23T13:39:31.838Z,48.70
2019-03-23T13:42:03.773Z,48.70
2019-03-23T13:44:35.701Z,49.00
2019-03-23T13:47:07.796Z,49.20
2019-03-23T13:49:39.786Z,48.70
2019-03-23T13:52:11.666Z,48.80
2019-03-23T13:54:43.642Z,48.90
2019-03-23T13:57:16.325Z,48.50
2019-03-23T13:59:48.913Z,48.00
2019-03-23T14:02:21.672Z,48.40
2019-03-23T14:04:53.652Z,47.00
2019-03-23T14:07:25.906Z,47.80
2019-03-23T14:09:57.895Z,48.70
2019-03-23T14:12:30.830Z,47.00
2019-03-23T14:15:02.836Z,47.60
2019-03-23T14:17:35.373Z,46.00
2019-03-23T14:20:08.522Z,45.60
2019-03-23T14:22:40.465Z,45.40
2019-03-23T14:25:12.710Z,45.60
2019-03-23T14:27:44.672Z,46.20
2019-03-23T14:30:16.776Z,46.60
2019-03-23T14:32:49.332Z,47.40
2019-03-23T14:35:21.438Z,47.10
2019-03-23T14:37:53.886Z,47.60
2019-03-23T14:40:25.938Z,47.60
2019-03-23T14:42:58.095Z,47.50
2019-03-23T14:45:30.239Z,45.70
2019-03-23T14:48:02.255Z,46.20
2019-03-23T14:50:34.319Z,47.70
2019-03-23T14:53:08.188Z,47.90
2019-03-23T14:55:40.137Z,47.70
2019-03-23T14:58:12.420Z,47.80
2019-03-23T15:00:44.601Z,48.40
2019-03-23T15:03:16.728Z,47.50
2019-03-23T15:05:48.728Z,47.90
2019-03-23T15:08:21.191Z,47.60
2019-03-23T15:10:53.820Z,48.50
2019-03-23T15:13:25.847Z,48.90
2019-03-23T15:15:57.938Z,47.90
2019-03-23T15:18:31.148Z,47.60
2019-03-23T15:21:03.714Z,47.90
2019-03-23T15:23:35.951Z,48.60
2019-03-23T15:26:08.149Z,48.60
2019-03-23T15:28:40.482Z,48.90
2019-03-23T15:31:12.407Z,49.40
2019-03-23T15:33:44.813Z,49.70
2019-03-23T15:36:16.813Z,50.60
2019-03-23T15:38:48.843Z,50.60
2019-03-23T15:41:20.803Z,51.30
2019-03-23T15:43:52.838Z,52.00
2019-03-23T15:46:24.824Z,59.80
2019-03-23T15:48:57.088Z,63.10
2019-03-23T15:51:29.463Z,66.30
2019-03-23T15:54:01.869Z,68.70
2019-03-23T15:56:33.941Z,70.90
2019-03-23T15:59:06.080Z,72.90
2019-03-23T16:01:37.969Z,74.60
2019-03-23T16:04:09.976Z,76.80
2019-03-23T16:06:42.035Z,77.60
2019-03-23T16:09:13.971Z,77.90
2019-03-23T16:11:46.903Z,79.10
2019-03-23T16:14:19.277Z,80.00
2019-03-23T16:16:51.220Z,80.40
2019-03-23T16:19:23.163Z,92.60
2019-03-23T16:21:58.623Z,95.90
2019-03-23T16:24:30.629Z,99.90
2019-03-23T16:27:02.975Z,99.90
2019-03-23T16:29:35.069Z,99.90
2019-03-23T16:32:07.410Z,99.90
2019-03-23T16:34:39.957Z,99.90
2019-03-23T16:37:12.029Z,99.90
2019-03-23T16:39:44.560Z,99.90
2019-03-23T16:42:16.897Z,99.90
2019-03-23T16:44:48.926Z,99.90
2019-03-23T16:47:21.231Z,99.90
2019-03-23T16:49:53.351Z,99.90
2019-03-23T16:52:25.325Z,99.90
2019-03-23T16:54:57.305Z,99.90
2019-03-23T16:57:29.225Z,99.90
2019-03-23T17:00:01.110Z,99.90
2019-03-23T17:02:33.109Z,99.90
2019-03-23T17:05:05.235Z,99.90
2019-03-23T17:07:39.393Z,99.90
2019-03-23T17:10:11.997Z,99.90
2019-03-23T17:12:43.985Z,99.90
2019-03-23T17:15:15.943Z,99.90
2019-03-23T17:17:47.919Z,99.90
2019-03-23T17:20:19.924Z,99.90
2019-03-23T17:22:51.907Z,99.90
2019-03-23T17:25:23.920Z,99.90
2019-03-23T17:27:55.949Z,99.90
2019-03-23T17:30:28.044Z,99.90
2019-03-23T17:33:00.106Z,99.90
2019-03-23T17:35:32.042Z,99.90
2019-03-23T17:38:04.694Z,99.90
2019-03-23T17:40:36.942Z,99.90
2019-03-23T17:43:08.942Z,99.90
2019-03-23T17:45:41.179Z,99.90
2019-03-23T17:48:13.159Z,99.90
2019-03-23T17:50:45.101Z,99.90
2019-03-23T17:53:18.285Z,99.90
2019-03-23T17:55:50.693Z,99.90
2019-03-23T17:58:22.930Z,99.90
2019-03-23T18:00:55.310Z,99.90
2019-03-23T18:03:27.378Z,99.90
2019-03-23T18:05:59.540Z,99.90
2019-03-23T18:08:31.635Z,99.90
2019-03-23T18:11:03.769Z,99.90
2019-03-23T18:13:35.840Z,99.90
2019-03-23T18:16:08.418Z,99.90
2019-03-23T18:18:40.780Z,99.90
2019-03-23T18:21:13.075Z,99.90
2019-03-23T18:23:45.155Z,99.90
2019-03-23T18:26:17.387Z,99.90
2019-03-23T18:28:49.756Z,99.90
2019-03-23T18:31:22.429Z,99.90
2019-03-23T18:33:55.510Z,99.90
2019-03-23T18:36:27.776Z,99.90
2019-03-23T18:39:00.226Z,99.90
2019-03-23T18:41:32.317Z,99.90
2019-03-23T18:44:04.484Z,99.90
2019-03-23T18:46:37.462Z,99.90
2019-03-23T18:49:09.553Z,99.90
2019-03-23T18:51:42.019Z,99.90
2019-03-23T18:54:14.422Z,99.90
2019-03-23T18:56:46.421Z,99.90
2019-03-23T18:59:18.416Z,99.90
2019-03-23T19:01:50.722Z,99.90
2019-03-23T19:04:23.130Z,99.90
2019-03-23T19:06:55.204Z,99.90
2019-03-23T19:09:27.125Z,99.90
2019-03-23T19:11:59.459Z,99.90
2019-03-23T19:14:32.008Z,99.90
2019-03-23T19:17:04.125Z,99.90
2019-03-23T19:19:36.479Z,99.90
2019-03-23T19:22:08.614Z,99.90
2019-03-23T19:24:40.904Z,99.90
2019-03-23T19:27:12.947Z,99.90
2019-03-23T19:29:44.966Z,99.90
2019-03-23T19:32:16.986Z,99.90
2019-03-23T19:34:49.167Z,99.90
2019-03-23T19:37:21.465Z,99.90
2019-03-23T19:39:53.445Z,99.90
2019-03-23T19:42:25.469Z,99.90
2019-03-23T19:44:57.543Z,99.90
2019-03-23T19:47:29.643Z,99.90
2019-03-23T19:50:01.907Z,99.90
2019-03-23T19:52:34.567Z,99.90
2019-03-23T19:55:08.506Z,99.90
2019-03-23T19:57:40.526Z,99.90
2019-03-23T20:00:13.761Z,99.90
2019-03-23T20:02:45.750Z,99.90
2019-03-23T20:05:17.745Z,99.90
2019-03-23T20:07:49.796Z,99.90
2019-03-23T20:10:21.976Z,99.90
2019-03-23T20:12:54.007Z,99.90
2019-03-23T20:15:26.287Z,99.90
2019-03-23T20:17:58.344Z,99.90
2019-03-23T20:20:30.335Z,99.90
2019-03-23T20:23:02.417Z,99.90
2019-03-23T20:25:34.284Z,99.90
2019-03-23T20:28:06.378Z,99.90
2019-03-23T20:30:38.323Z,99.90
2019-03-23T20:33:19.019Z,99.90
2019-03-23T20:35:44.108Z,99.90
2019-03-23T20:38:16.160Z,99.90
2019-03-23T20:40:48.168Z,99.90
2019-03-23T20:43:20.452Z,99.90
2019-03-23T20:45:52.466Z,99.90
2019-03-23T20:48:25.798Z,99.90
2019-03-23T20:50:57.841Z,99.90
2019-03-23T20:53:30.129Z,99.90
2019-03-23T20:56:02.131Z,99.90
2019-03-23T20:58:34.456Z,99.90
2019-03-23T21:01:06.717Z,99.90
2019-03-23T21:03:38.636Z,99.90
2019-03-23T21:06:12.577Z,99.90
2019-03-23T21:08:45.071Z,99.90
2019-03-23T21:11:17.460Z,99.90
2019-03-23T21:13:49.818Z,99.90
2019-03-23T21:16:21.797Z,99.90
2019-03-23T21:18:53.940Z,99.90
2019-03-23T21:21:26.627Z,99.90
2019-03-23T21:23:58.708Z,99.90
2019-03-23T21:26:30.850Z,99.90
2019-03-23T21:29:03.043Z,99.90
2019-03-23T21:31:35.201Z,99.90
2019-03-23T21:34:07.666Z,99.90
2019-03-23T21:36:40.234Z,99.90
2019-03-23T21:39:12.882Z,99.90
2019-03-23T21:41:45.300Z,99.90
2019-03-23T21:44:17.783Z,99.90
2019-03-23T21:46:51.131Z,99.90
2019-03-23T21:49:23.226Z,99.90
2019-03-23T21:51:55.191Z,99.90
2019-03-23T21:54:27.364Z,99.90
2019-03-23T21:57:01.092Z,99.90
2019-03-23T21:59:34.043Z,99.90
2019-03-23T22:02:06.538Z,99.90
2019-03-23T22:04:39.346Z,99.90
2019-03-23T22:07:11.477Z,99.90
2019-03-23T22:09:43.852Z,99.90
2019-03-23T22:12:16.046Z,99.90
2019-03-23T22:14:48.085Z,99.90
2019-03-23T22:17:20.763Z,99.90
2019-03-23T22:19:52.775Z,99.90
2019-03-23T22:22:25.505Z,99.90
2019-03-23T22:24:57.499Z,99.90
2019-03-23T22:27:29.663Z,99.90
2019-03-23T22:30:06.921Z,99.90
2019-03-23T22:32:39.079Z,99.90
2019-03-23T22:35:11.448Z,99.90
2019-03-23T22:37:43.540Z,99.90
2019-03-23T22:40:15.850Z,99.90
2019-03-23T22:42:48.121Z,99.90
2019-03-23T22:45:21.377Z,99.90
2019-03-23T22:47:54.375Z,99.90
2019-03-23T22:50:53.497Z,99.90
2019-03-23T22:54:04.432Z,99.90
2019-03-23T22:56:49.108Z,99.90
2019-03-23T22:59:31.433Z,99.90
2019-03-23T23:02:38.688Z,99.90
2019-03-23T23:05:21.604Z,99.90
2019-03-23T23:08:07.903Z,99.90
2019-03-23T23:10:51.330Z,99.90
2019-03-23T23:13:50.427Z,99.90
2019-03-23T23:16:31.494Z,99.90
2019-03-23T23:19:16.577Z,99.90
2019-03-23T23:21:55.661Z,99.90
2019-03-23T23:24:31.150Z,99.90
2019-03-23T23:27:24.208Z,99.90
2019-03-23T23:30:26.233Z,99.90
2019-03-23T23:33:19.189Z,99.90
2019-03-23T23:36:24.975Z,99.90
2019-03-23T23:39:19.541Z,99.90
2019-03-23T23:42:07.233Z,99.90
2019-03-23T23:44:49.613Z,99.90
2019-03-23T23:47:35.060Z,99.90
2019-03-23T23:50:17.499Z,99.90
2019-03-23T23:53:29.397Z,99.90
2019-03-23T23:56:20.611Z,99.90
2019-03-23T23:59:21.567Z,99.90
